createdAt,value
2023-04-27T00:01:44.026Z,15.47
2023-04-27T00:04:11.166Z,12.03
2023-04-27T00:06:38.337Z,12.23
2023-04-27T00:09:05.402Z,9.93
2023-04-27T00:11:32.554Z,10.43
2023-04-27T00:13:59.556Z,14.77
2023-04-27T00:16:26.749Z,12.20
2023-04-27T00:18:54.100Z,10.60
2023-04-27T00:21:21.249Z,10.60
2023-04-27T00:23:48.316Z,11.83
2023-04-27T00:26:15.340Z,9.40
2023-04-27T00:28:42.358Z,9.20
2023-04-27T00:31:09.387Z,15.60
2023-04-27T00:33:36.406Z,10.20
2023-04-27T00:36:03.679Z,13.53
2023-04-27T00:38:31.348Z,14.53
2023-04-27T00:41:07.747Z,15.13
2023-04-27T00:43:43.849Z,11.20
2023-04-27T00:46:13.915Z,10.70
2023-04-27T00:48:42.109Z,12.27
2023-04-27T00:51:09.196Z,11.07
2023-04-27T00:53:37.661Z,11.60
2023-04-27T00:56:08.088Z,9.67
2023-04-27T00:58:35.190Z,17.27
2023-04-27T01:01:02.366Z,13.57
2023-04-27T01:03:30.727Z,9.43
2023-04-27T01:06:01.547Z,14.73
2023-04-27T01:08:29.923Z,10.97
2023-04-27T01:10:57.189Z,12.17
2023-04-27T01:13:24.408Z,11.53
2023-04-27T01:15:51.451Z,12.63
2023-04-27T01:18:18.557Z,12.60
2023-04-27T01:20:45.569Z,16.43
2023-04-27T01:23:17.299Z,8.43
2023-04-27T01:25:44.867Z,12.43
2023-04-27T01:28:12.025Z,11.83
2023-04-27T01:30:39.271Z,13.57
2023-04-27T01:33:06.360Z,13.90
2023-04-27T01:35:33.391Z,14.30
2023-04-27T01:38:01.419Z,19.67
2023-04-27T01:40:28.576Z,13.20
2023-04-27T01:42:56.171Z,13.47
2023-04-27T01:45:23.293Z,12.67
2023-04-27T01:47:53.615Z,13.93
2023-04-27T01:50:20.970Z,15.23
2023-04-27T01:52:47.990Z,20.10
2023-04-27T01:55:15.072Z,14.10
2023-04-27T01:57:42.076Z,18.17
2023-04-27T02:00:09.824Z,12.77
2023-04-27T02:02:36.927Z,12.37
2023-04-27T02:05:04.478Z,14.40
2023-04-27T02:07:31.547Z,12.97
2023-04-27T02:09:58.561Z,12.97
2023-04-27T02:12:25.591Z,17.53
2023-04-27T02:14:52.581Z,17.07
2023-04-27T02:17:19.574Z,22.93
2023-04-27T02:19:46.565Z,18.17
2023-04-27T02:22:13.668Z,16.80
2023-04-27T02:24:40.629Z,14.63
2023-04-27T02:27:07.660Z,15.83
2023-04-27T02:29:38.914Z,17.70
2023-04-27T02:32:07.330Z,16.60
2023-04-27T02:34:34.398Z,12.73
2023-04-27T02:37:01.473Z,12.67
2023-04-27T02:39:28.494Z,18.50
2023-04-27T02:41:55.482Z,15.80
2023-04-27T02:44:22.514Z,12.17
2023-04-27T02:46:50.729Z,17.67
2023-04-27T02:49:17.753Z,15.23
2023-04-27T02:51:44.849Z,16.47
2023-04-27T02:54:12.020Z,18.93
2023-04-27T02:56:39.120Z,17.50
2023-04-27T02:59:06.179Z,17.07
2023-04-27T03:01:33.207Z,22.77
2023-04-27T03:04:00.573Z,20.67
2023-04-27T03:06:27.792Z,22.30
2023-04-27T03:08:54.749Z,20.03
2023-04-27T03:11:21.740Z,18.53
2023-04-27T03:13:48.726Z,29.43
2023-04-27T03:16:15.790Z,19.27
2023-04-27T03:18:42.841Z,23.13
2023-04-27T03:21:13.533Z,19.97
2023-04-27T03:23:40.791Z,16.63
2023-04-27T03:26:09.873Z,22.47
2023-04-27T03:28:38.397Z,22.00
2023-04-27T03:31:07.482Z,16.50
2023-04-27T03:33:35.015Z,29.03
2023-04-27T03:36:02.653Z,19.83
2023-04-27T03:38:30.292Z,20.67
2023-04-27T03:40:57.993Z,22.13
2023-04-27T03:43:26.168Z,17.47
2023-04-27T03:45:53.726Z,17.53
2023-04-27T03:48:21.054Z,27.80
2023-04-27T03:50:48.330Z,22.00
2023-04-27T03:53:15.922Z,25.13
2023-04-27T03:55:44.791Z,24.47
2023-04-27T03:58:12.384Z,17.63
2023-04-27T04:00:40.101Z,22.13
2023-04-27T04:03:08.149Z,19.13
2023-04-27T04:05:35.575Z,28.13
2023-04-27T04:08:02.666Z,23.50
2023-04-27T04:10:29.743Z,21.07
2023-04-27T04:12:56.777Z,20.83
2023-04-27T04:15:23.858Z,26.00
2023-04-27T04:17:51.301Z,19.93
2023-04-27T04:20:18.554Z,21.47
2023-04-27T04:22:45.674Z,20.30
2023-04-27T04:25:13.183Z,28.40
2023-04-27T04:27:41.131Z,21.40
2023-04-27T04:30:08.786Z,17.37
2023-04-27T04:32:38.129Z,20.77
2023-04-27T04:35:08.633Z,22.07
2023-04-27T04:37:36.525Z,24.90
2023-04-27T04:40:10.974Z,24.90
2023-04-27T04:42:38.570Z,28.80
2023-04-27T04:45:07.317Z,28.73
2023-04-27T04:47:34.691Z,17.48
2023-04-27T04:50:02.153Z,16.35
2023-04-27T04:52:29.353Z,19.92
2023-04-27T04:54:56.411Z,20.63
2023-04-27T04:57:23.522Z,18.42
2023-04-27T04:59:50.925Z,17.27
2023-04-27T05:02:17.976Z,19.27
2023-04-27T05:04:45.781Z,17.98
2023-04-27T05:07:14.909Z,16.60
2023-04-27T05:09:42.618Z,18.80
2023-04-27T05:12:10.260Z,21.58
2023-04-27T05:14:37.331Z,18.48
2023-04-27T05:17:04.378Z,15.10
2023-04-27T05:19:31.795Z,21.33
2023-04-27T05:21:59.430Z,17.38
2023-04-27T05:24:27.194Z,13.20
2023-04-27T05:26:54.992Z,15.02
2023-04-27T05:29:22.794Z,17.75
2023-04-27T05:31:49.879Z,17.50
2023-04-27T05:34:17.062Z,14.23
2023-04-27T05:36:44.178Z,22.00
2023-04-27T05:39:11.346Z,18.77
2023-04-27T05:41:38.711Z,23.33
2023-04-27T05:44:06.648Z,24.52
2023-04-27T05:46:33.821Z,22.20
2023-04-27T05:49:01.604Z,21.38
2023-04-27T05:51:28.971Z,18.10
2023-04-27T05:53:56.033Z,30.65
2023-04-27T05:56:23.296Z,24.98
2023-04-27T05:58:50.300Z,33.28
2023-04-27T06:01:17.420Z,23.65
2023-04-27T06:03:44.652Z,22.13
2023-04-27T06:06:11.879Z,14.43
2023-04-27T06:08:39.587Z,17.80
2023-04-27T06:11:06.975Z,13.77
2023-04-27T06:13:34.179Z,19.27
2023-04-27T06:16:01.971Z,19.92
2023-04-27T06:18:29.180Z,16.45
2023-04-27T06:21:02.778Z,22.00
2023-04-27T06:23:30.034Z,13.68
2023-04-27T06:25:58.840Z,14.55
2023-04-27T06:28:26.289Z,18.60
2023-04-27T06:30:54.663Z,24.05
2023-04-27T06:33:21.916Z,13.02
2023-04-27T06:35:48.946Z,16.95
2023-04-27T06:38:16.705Z,16.92
2023-04-27T06:40:44.931Z,17.52
2023-04-27T06:43:11.923Z,19.13
2023-04-27T06:45:38.875Z,17.98
2023-04-27T06:48:06.080Z,20.27
2023-04-27T06:50:33.173Z,17.52
2023-04-27T06:53:00.195Z,14.80
2023-04-27T06:55:27.207Z,13.23
2023-04-27T06:57:54.233Z,22.65
2023-04-27T07:00:21.619Z,21.00
2023-04-27T07:02:48.714Z,17.27
2023-04-27T07:05:16.462Z,17.30
2023-04-27T07:07:43.492Z,14.23
2023-04-27T07:10:11.102Z,17.67
2023-04-27T07:12:38.695Z,14.95
2023-04-27T07:15:07.270Z,11.93
2023-04-27T07:17:34.470Z,21.67
2023-04-27T07:20:06.441Z,20.83
2023-04-27T07:22:33.816Z,17.15
2023-04-27T07:25:01.034Z,17.30
2023-04-27T07:27:28.170Z,15.85
2023-04-27T07:29:55.279Z,15.63
2023-04-27T07:32:22.907Z,14.93
2023-04-27T07:34:54.207Z,16.80
2023-04-27T07:37:22.932Z,19.45
2023-04-27T07:39:52.088Z,13.00
2023-04-27T07:42:22.320Z,20.15
2023-04-27T07:44:50.391Z,16.33
2023-04-27T07:47:20.507Z,22.20
2023-04-27T07:49:48.123Z,65.82
2023-04-27T07:52:15.952Z,33.13
2023-04-27T07:54:43.280Z,22.73
2023-04-27T07:57:11.883Z,15.73
2023-04-27T07:59:39.729Z,12.52
2023-04-27T08:02:19.275Z,10.25
2023-04-27T08:04:48.594Z,10.48
2023-04-27T08:07:17.556Z,25.05
2023-04-27T08:09:44.895Z,14.23
2023-04-27T08:12:11.946Z,13.82
2023-04-27T08:14:38.982Z,15.98
2023-04-27T08:17:06.390Z,13.90
2023-04-27T08:19:33.537Z,14.43
2023-04-27T08:22:01.116Z,14.13
2023-04-27T08:24:28.118Z,15.50
2023-04-27T08:26:55.253Z,16.23
2023-04-27T08:29:27.781Z,12.68
2023-04-27T08:31:58.682Z,14.20
2023-04-27T08:34:26.070Z,15.60
2023-04-27T08:36:54.174Z,15.38
2023-04-27T08:39:21.908Z,12.48
2023-04-27T08:41:49.110Z,11.95
2023-04-27T08:44:16.269Z,8.02
2023-04-27T08:46:44.555Z,8.00
2023-04-27T08:49:12.754Z,8.90
2023-04-27T08:51:41.652Z,9.25
2023-04-27T08:54:08.853Z,15.70
2023-04-27T08:56:35.883Z,13.95
2023-04-27T08:59:05.807Z,11.15
2023-04-27T09:01:34.453Z,6.03
2023-04-27T09:04:02.406Z,11.25
2023-04-27T09:06:34.797Z,6.90
2023-04-27T09:09:03.423Z,26.40
2023-04-27T09:11:40.845Z,9.55
2023-04-27T09:14:20.310Z,9.73
2023-04-27T09:16:59.418Z,8.38
2023-04-27T09:19:30.830Z,5.93
2023-04-27T09:22:11.199Z,6.38
2023-04-27T09:24:38.463Z,7.47
2023-04-27T09:27:08.945Z,6.55
2023-04-27T09:29:38.156Z,11.52
2023-04-27T09:32:20.745Z,12.07
2023-04-27T09:34:48.178Z,7.47
2023-04-27T09:37:15.711Z,10.68
2023-04-27T09:39:43.470Z,17.15
2023-04-27T09:42:12.627Z,10.43
2023-04-27T09:44:39.804Z,9.57
2023-04-27T09:47:07.444Z,7.35
2023-04-27T09:49:36.339Z,7.82
2023-04-27T09:52:04.245Z,10.32
2023-04-27T09:54:34.568Z,6.72
2023-04-27T09:57:37.545Z,6.47
2023-04-27T10:00:26.389Z,8.70
2023-04-27T10:03:11.973Z,8.00
2023-04-27T10:06:04.739Z,10.10
2023-04-27T10:08:35.848Z,10.10
2023-04-27T10:11:15.565Z,8.38
2023-04-27T10:13:54.445Z,4.63
2023-04-27T10:16:22.488Z,7.63
2023-04-27T10:18:56.260Z,12.38
2023-04-27T10:21:23.915Z,12.25
2023-04-27T10:23:52.458Z,4.55
2023-04-27T10:26:27.908Z,5.20
2023-04-27T10:29:09.227Z,7.25
2023-04-27T10:31:43.341Z,8.88
2023-04-27T10:34:20.581Z,12.02
2023-04-27T10:36:48.444Z,8.10
2023-04-27T10:39:27.612Z,10.07
2023-04-27T10:41:59.988Z,12.60
2023-04-27T10:44:29.853Z,12.35
2023-04-27T10:47:02.551Z,36.17
2023-04-27T10:49:30.689Z,14.30
2023-04-27T10:51:59.633Z,9.45
2023-04-27T10:54:30.184Z,7.60
2023-04-27T10:57:09.194Z,4.82
2023-04-27T10:59:49.859Z,8.75
2023-04-27T11:02:17.537Z,7.38
2023-04-27T11:04:44.627Z,5.80
2023-04-27T11:07:12.353Z,14.27
2023-04-27T11:09:42.598Z,4.43
2023-04-27T11:12:13.911Z,5.18
2023-04-27T11:14:41.084Z,5.28
2023-04-27T11:17:09.190Z,7.57
2023-04-27T11:19:48.694Z,4.68
2023-04-27T11:22:19.213Z,10.73
2023-04-27T11:24:50.987Z,8.10
2023-04-27T11:27:19.180Z,4.57
2023-04-27T11:29:46.574Z,6.25
2023-04-27T11:32:23.917Z,5.38
2023-04-27T11:34:56.067Z,5.78
2023-04-27T11:37:27.675Z,10.57
2023-04-27T11:39:57.477Z,9.75
2023-04-27T11:42:28.936Z,10.20
2023-04-27T11:45:00.570Z,6.80
2023-04-27T11:47:30.503Z,6.25
2023-04-27T11:50:01.237Z,8.60
2023-04-27T11:52:33.471Z,6.32
2023-04-27T11:55:02.627Z,9.98
2023-04-27T11:57:32.910Z,6.97
2023-04-27T12:00:02.609Z,15.35
2023-04-27T12:02:31.477Z,8.85
2023-04-27T12:04:59.952Z,13.68
2023-04-27T12:07:27.280Z,13.98
2023-04-27T12:09:54.499Z,9.02
2023-04-27T12:12:24.388Z,7.25
2023-04-27T12:14:51.987Z,7.40
2023-04-27T12:17:19.679Z,8.25
2023-04-27T12:19:46.706Z,9.65
2023-04-27T12:22:14.504Z,5.43
2023-04-27T12:24:41.474Z,5.40
2023-04-27T12:27:08.609Z,6.40
2023-04-27T12:29:35.645Z,8.98
2023-04-27T12:32:02.622Z,10.38
2023-04-27T12:34:29.714Z,8.40
2023-04-27T12:36:56.958Z,9.52
2023-04-27T12:39:27.041Z,10.40
2023-04-27T12:41:54.883Z,8.20
2023-04-27T12:44:22.760Z,10.50
2023-04-27T12:46:50.613Z,10.73
2023-04-27T12:49:18.114Z,5.57
2023-04-27T12:51:47.931Z,6.55
2023-04-27T12:54:15.265Z,3.95
2023-04-27T12:56:42.371Z,6.93
2023-04-27T12:59:09.934Z,7.40
2023-04-27T13:01:37.366Z,10.70
2023-04-27T13:04:06.367Z,6.35
2023-04-27T13:06:33.627Z,4.40
2023-04-27T13:09:00.641Z,9.80
2023-04-27T13:11:27.820Z,6.82
2023-04-27T13:13:57.962Z,8.63
2023-04-27T13:16:25.817Z,6.35
2023-04-27T13:18:55.484Z,8.05
2023-04-27T13:21:23.330Z,8.00
2023-04-27T13:23:51.279Z,8.10
2023-04-27T13:26:19.125Z,6.07
2023-04-27T13:28:46.240Z,3.85
2023-04-27T13:31:13.338Z,8.45
2023-04-27T13:33:43.168Z,8.07
2023-04-27T13:36:11.541Z,6.82
2023-04-27T13:38:39.013Z,7.53
2023-04-27T13:41:06.768Z,7.75
2023-04-27T13:43:34.192Z,20.48
2023-04-27T13:46:02.528Z,5.45
2023-04-27T13:48:30.497Z,4.35
2023-04-27T13:50:57.889Z,9.13
2023-04-27T13:53:25.980Z,3.88
2023-04-27T13:55:57.458Z,6.20
2023-04-27T13:58:27.296Z,9.57
2023-04-27T14:00:54.818Z,5.88
2023-04-27T14:03:22.903Z,11.13
2023-04-27T14:05:51.426Z,10.82
2023-04-27T14:08:18.902Z,13.65
2023-04-27T14:10:46.322Z,6.40
2023-04-27T14:13:13.636Z,13.90
2023-04-27T14:15:41.814Z,8.30
2023-04-27T14:18:09.820Z,9.77
2023-04-27T14:20:38.794Z,15.93
2023-04-27T14:23:06.961Z,11.82
2023-04-27T14:25:34.970Z,5.63
2023-04-27T14:28:06.871Z,14.10
2023-04-27T14:30:35.058Z,9.13
2023-04-27T14:33:02.873Z,8.40
2023-04-27T14:35:30.251Z,7.32
2023-04-27T14:38:01.981Z,7.80
2023-04-27T14:40:30.858Z,3.97
2023-04-27T14:42:58.718Z,5.70
2023-04-27T14:45:30.972Z,3.88
2023-04-27T14:48:00.962Z,7.28
2023-04-27T14:50:28.679Z,4.57
2023-04-27T14:52:58.782Z,6.43
2023-04-27T14:55:26.029Z,5.45
2023-04-27T14:57:53.048Z,12.25
2023-04-27T15:00:20.330Z,11.52
2023-04-27T15:02:47.354Z,7.45
2023-04-27T15:05:14.395Z,13.18
2023-04-27T15:07:41.596Z,16.42
2023-04-27T15:10:09.447Z,8.48
2023-04-27T15:12:36.484Z,13.13
2023-04-27T15:15:03.757Z,7.43
2023-04-27T15:17:30.888Z,12.15
2023-04-27T15:19:57.972Z,30.75
2023-04-27T15:22:25.046Z,10.25
2023-04-27T15:24:52.853Z,10.45
2023-04-27T15:27:19.964Z,6.97
2023-04-27T15:29:46.926Z,7.53
2023-04-27T15:32:13.900Z,7.78
2023-04-27T15:34:44.483Z,6.28
2023-04-27T15:37:11.811Z,5.32
2023-04-27T15:39:38.863Z,9.35
2023-04-27T15:42:06.046Z,6.20
2023-04-27T15:44:33.182Z,7.13
2023-04-27T15:47:00.275Z,7.47
2023-04-27T15:49:27.694Z,14.43
2023-04-27T15:51:55.452Z,8.75
2023-04-27T15:54:22.640Z,8.70
2023-04-27T15:56:49.684Z,10.45
2023-04-27T15:59:16.896Z,11.77
2023-04-27T16:01:44.169Z,7.50
2023-04-27T16:04:11.574Z,9.27
2023-04-27T16:06:39.088Z,5.25
2023-04-27T16:09:10.413Z,8.52
2023-04-27T16:11:38.044Z,6.68
2023-04-27T16:14:05.191Z,8.23
2023-04-27T16:16:32.439Z,9.38
2023-04-27T16:18:59.553Z,9.48
2023-04-27T16:21:28.124Z,12.68
2023-04-27T16:23:55.104Z,9.80
2023-04-27T16:26:22.101Z,7.68
2023-04-27T16:28:49.166Z,10.90
2023-04-27T16:31:16.234Z,7.35
2023-04-27T16:33:43.235Z,5.95
2023-04-27T16:36:11.375Z,13.00
2023-04-27T16:38:39.512Z,8.13
2023-04-27T16:41:06.588Z,24.73
2023-04-27T16:43:33.985Z,9.82
2023-04-27T16:46:01.288Z,12.50
2023-04-27T16:48:28.483Z,8.85
2023-04-27T16:50:56.372Z,7.78
2023-04-27T16:53:23.719Z,5.43
2023-04-27T16:55:50.750Z,7.47
2023-04-27T16:58:17.839Z,7.15
2023-04-27T17:00:45.027Z,10.38
2023-04-27T17:03:12.220Z,9.65
2023-04-27T17:05:39.438Z,7.13
2023-04-27T17:08:06.478Z,9.05
2023-04-27T17:10:33.571Z,6.72
2023-04-27T17:13:00.614Z,5.45
2023-04-27T17:15:28.776Z,4.80
2023-04-27T17:17:56.388Z,9.65
2023-04-27T17:20:23.429Z,6.25
2023-04-27T17:22:50.482Z,8.52
2023-04-27T17:25:17.759Z,8.18
2023-04-27T17:27:44.828Z,10.32
2023-04-27T17:30:12.215Z,5.78
2023-04-27T17:32:39.486Z,8.60
2023-04-27T17:35:07.269Z,11.30
2023-04-27T17:37:34.226Z,7.15
2023-04-27T17:40:01.225Z,7.85
2023-04-27T17:42:28.227Z,6.53
2023-04-27T17:44:55.624Z,8.27
2023-04-27T17:47:25.367Z,10.25
2023-04-27T17:49:52.581Z,10.30
2023-04-27T17:52:19.639Z,10.65
2023-04-27T17:54:48.171Z,10.93
2023-04-27T17:57:15.153Z,10.33
2023-04-27T17:59:42.168Z,6.65
2023-04-27T18:02:09.272Z,11.18
2023-04-27T18:04:36.647Z,9.87
2023-04-27T18:07:03.876Z,9.18
2023-04-27T18:09:32.935Z,10.93
2023-04-27T18:12:00.746Z,9.32
2023-04-27T18:14:27.835Z,11.67
2023-04-27T18:16:55.010Z,5.65
2023-04-27T18:19:22.583Z,7.55
2023-04-27T18:21:49.598Z,9.77
2023-04-27T18:24:16.593Z,10.03
2023-04-27T18:26:43.576Z,9.07
2023-04-27T18:29:10.596Z,9.20
2023-04-27T18:31:38.074Z,9.27
2023-04-27T18:34:05.163Z,9.30
2023-04-27T18:36:32.345Z,11.30
2023-04-27T18:38:59.714Z,10.03
2023-04-27T18:41:26.685Z,14.40
2023-04-27T18:43:53.811Z,12.00
2023-04-27T18:46:21.081Z,12.65
2023-04-27T18:48:48.225Z,12.60
2023-04-27T18:51:15.202Z,13.83
2023-04-27T18:53:42.160Z,16.87
2023-04-27T18:56:10.259Z,14.17
2023-04-27T18:58:37.277Z,13.43
2023-04-27T19:01:04.361Z,14.17
2023-04-27T19:03:31.767Z,11.50
2023-04-27T19:05:58.952Z,15.63
2023-04-27T19:08:25.958Z,9.73
2023-04-27T19:10:52.956Z,12.73
2023-04-27T19:13:19.913Z,12.73
2023-04-27T19:15:46.946Z,14.03
2023-04-27T19:18:13.984Z,13.07
2023-04-27T19:20:40.978Z,12.50
2023-04-27T19:23:09.610Z,13.43
2023-04-27T19:25:37.274Z,12.07
2023-04-27T19:28:05.060Z,19.17
2023-04-27T19:30:32.116Z,15.03
2023-04-27T19:32:59.153Z,12.80
2023-04-27T19:35:27.685Z,20.43
2023-04-27T19:37:54.774Z,14.53
2023-04-27T19:40:21.938Z,13.57
2023-04-27T19:42:49.786Z,20.97
2023-04-27T19:45:18.070Z,14.70
2023-04-27T19:47:46.156Z,20.60
2023-04-27T19:50:13.331Z,9.93
2023-04-27T19:52:40.634Z,16.83
2023-04-27T19:55:08.448Z,17.37
2023-04-27T19:57:35.622Z,12.63
2023-04-27T20:00:05.256Z,14.03
2023-04-27T20:02:32.936Z,19.23
2023-04-27T20:05:00.182Z,15.17
2023-04-27T20:07:27.425Z,14.13
2023-04-27T20:09:54.415Z,12.23
2023-04-27T20:12:43.494Z,16.00
2023-04-27T20:15:09.648Z,14.90
2023-04-27T20:17:36.757Z,14.40
2023-04-27T20:20:10.511Z,14.37
2023-04-27T20:22:38.378Z,21.50
2023-04-27T20:25:06.638Z,19.27
2023-04-27T20:27:35.434Z,17.23
2023-04-27T20:30:02.673Z,17.77
2023-04-27T20:32:29.665Z,18.03
2023-04-27T20:34:56.638Z,21.50
2023-04-27T20:37:24.841Z,18.87
2023-04-27T20:39:52.213Z,16.83
2023-04-27T20:42:19.235Z,20.07
2023-04-27T20:44:46.384Z,20.57
2023-04-27T20:47:14.775Z,19.30
2023-04-27T20:49:42.262Z,17.60
2023-04-27T20:52:09.355Z,21.13
2023-04-27T20:54:36.580Z,19.73
2023-04-27T20:57:08.539Z,19.70
2023-04-27T20:59:35.569Z,18.57
2023-04-27T21:02:02.833Z,20.80
2023-04-27T21:04:29.994Z,20.20
2023-04-27T21:06:57.105Z,16.93
2023-04-27T21:09:24.119Z,17.47
2023-04-27T21:11:51.150Z,14.67
2023-04-27T21:14:18.163Z,16.20
2023-04-27T21:16:45.215Z,15.53
2023-04-27T21:19:14.772Z,18.23
2023-04-27T21:21:42.063Z,16.87
2023-04-27T21:24:09.208Z,13.07
2023-04-27T21:26:36.340Z,15.97
2023-04-27T21:29:05.739Z,14.97
2023-04-27T21:31:34.122Z,15.43
2023-04-27T21:34:03.557Z,17.47
2023-04-27T21:36:30.690Z,15.87
2023-04-27T21:38:57.671Z,12.97
2023-04-27T21:41:24.730Z,15.70
2023-04-27T21:43:51.779Z,16.43
2023-04-27T21:46:18.882Z,17.20
2023-04-27T21:48:46.065Z,15.83
2023-04-27T21:51:13.004Z,19.37
2023-04-27T21:53:40.016Z,17.53
2023-04-27T21:56:07.561Z,15.60
2023-04-27T21:58:34.660Z,19.20
2023-04-27T22:01:01.772Z,20.97
2023-04-27T22:03:29.054Z,18.37
2023-04-27T22:05:57.598Z,16.70
2023-04-27T22:08:24.764Z,21.80
2023-04-27T22:10:51.960Z,20.07
2023-04-27T22:13:19.798Z,22.83
2023-04-27T22:15:48.420Z,30.63
2023-04-27T22:18:15.845Z,19.87
2023-04-27T22:20:43.189Z,23.67
2023-04-27T22:23:10.823Z,21.23
2023-04-27T22:25:37.904Z,21.90
2023-04-27T22:28:05.147Z,19.83
2023-04-27T22:30:32.196Z,23.60
2023-04-27T22:32:59.244Z,28.17
2023-04-27T22:35:27.797Z,21.13
2023-04-27T22:37:56.085Z,22.77
2023-04-27T22:40:23.394Z,22.70
2023-04-27T22:42:50.785Z,24.00
2023-04-27T22:45:17.868Z,22.33
2023-04-27T22:47:46.033Z,19.60
2023-04-27T22:50:13.809Z,22.83
2023-04-27T22:52:44.397Z,21.20
2023-04-27T22:55:12.829Z,22.60
2023-04-27T22:57:41.867Z,22.63
2023-04-27T23:00:11.493Z,24.40
2023-04-27T23:02:40.542Z,22.90
2023-04-27T23:05:08.904Z,23.63
2023-04-27T23:07:36.298Z,23.70
2023-04-27T23:10:03.625Z,21.63
2023-04-27T23:12:31.386Z,22.30
2023-04-27T23:15:01.390Z,28.67
2023-04-27T23:17:31.282Z,21.83
2023-04-27T23:20:11.247Z,22.60
2023-04-27T23:22:44.322Z,23.67
2023-04-27T23:25:11.710Z,26.93
2023-04-27T23:27:38.760Z,25.03
2023-04-27T23:30:06.762Z,26.40
2023-04-27T23:32:36.113Z,27.97
2023-04-27T23:35:03.197Z,25.03
2023-04-27T23:37:30.180Z,27.57
2023-04-27T23:39:57.144Z,29.63
2023-04-27T23:42:24.138Z,30.47
2023-04-27T23:44:51.332Z,27.87
2023-04-27T23:47:18.445Z,29.57
2023-04-27T23:49:45.682Z,25.33
2023-04-27T23:52:12.648Z,33.07
2023-04-27T23:54:39.654Z,29.97
2023-04-27T23:57:06.741Z,28.63
2023-04-27T23:59:35.435Z,28.93
